Weather at Peterhead Heliport

Public forecast

Using degrees Celsius for public forecast. Weather courtesy of forecast.io.

Closest aviation weather report (METAR) to Peterhead Heliport

Closest report is Aberdeen Dyce Airport, 21.9 nm (40.5 km) SSW. Retrieved 2021/07/24 16:20 UTC (31 minutes ago):

EGPD 241620Z AUTO 12010KT 100V170 9999 NCD 17/12 Q1012 NOSIG

Closest aviation forecast (TAF) to Peterhead Heliport

Closest forecast is Aberdeen Dyce Airport, 21.9 nm (40.5 km) SSW. Retrieved 2021/07/24 12:00 UTC (5 hours ago):

TAF EGPD 241055Z 2412/2512 15007KT 9999 BKN016 PROB30 TEMPO 2412/2421 BKN014 TEMPO 2421/2509 BKN008